createdAt,value
2017-04-04T00:00:42.833Z,33.98
2017-04-04T00:01:41.870Z,37.98
2017-04-04T00:02:40.864Z,44.27
2017-04-04T00:03:39.411Z,29.17
2017-04-04T00:04:38.004Z,44.15
2017-04-04T00:05:37.119Z,34.88
2017-04-04T00:06:36.098Z,34.45
2017-04-04T00:07:35.520Z,35.83
2017-04-04T00:08:34.484Z,34.68
2017-04-04T00:09:33.479Z,34.40
2017-04-04T00:10:32.537Z,36.95
2017-04-04T00:11:31.523Z,49.23
2017-04-04T00:12:30.868Z,36.98
2017-04-04T00:13:29.893Z,39.03
2017-04-04T00:14:28.533Z,35.27
2017-04-04T00:15:27.896Z,42.58
2017-04-04T00:16:26.879Z,42.32
2017-04-04T00:17:26.023Z,35.28
2017-04-04T00:18:24.601Z,37.90
2017-04-04T00:19:23.580Z,32.02
2017-04-04T00:20:22.191Z,42.88
2017-04-04T00:21:21.180Z,36.62
2017-04-04T00:22:20.159Z,35.52
2017-04-04T00:23:19.203Z,38.00
2017-04-04T00:24:17.782Z,52.32
2017-04-04T00:25:16.747Z,40.60
2017-04-04T00:26:15.745Z,34.07
2017-04-04T00:27:14.423Z,36.72
2017-04-04T00:28:13.426Z,40.18
2017-04-04T00:29:12.484Z,34.17
2017-04-04T00:30:11.521Z,36.02
2017-04-04T00:31:10.487Z,42.40
2017-04-04T00:32:09.474Z,46.77
2017-04-04T00:33:08.471Z,46.70
2017-04-04T00:34:07.470Z,40.47
2017-04-04T00:35:06.768Z,38.73
2017-04-04T00:36:05.736Z,39.32
2017-04-04T00:37:04.831Z,45.93
2017-04-04T00:38:03.815Z,39.08
2017-04-04T00:39:02.835Z,43.37
2017-04-04T00:40:01.796Z,42.48
2017-04-04T00:41:00.824Z,40.83
2017-04-04T00:42:00.183Z,39.23
2017-04-04T00:42:59.195Z,60.42
2017-04-04T00:43:58.583Z,40.38
2017-04-04T00:44:57.622Z,41.52
2017-04-04T00:45:56.231Z,44.30
2017-04-04T00:46:55.183Z,39.47
2017-04-04T00:47:54.148Z,41.42
2017-04-04T00:48:53.127Z,48.80
2017-04-04T00:49:52.248Z,50.18
2017-04-04T00:50:51.263Z,45.25
2017-04-04T00:51:50.279Z,47.27
2017-04-04T00:52:49.303Z,44.02
2017-04-04T00:53:48.272Z,41.05
2017-04-04T00:54:47.249Z,38.02
2017-04-04T00:55:46.272Z,44.03
2017-04-04T00:56:45.222Z,57.10
2017-04-04T00:57:44.275Z,43.43
2017-04-04T00:58:43.254Z,48.02
2017-04-04T00:59:42.291Z,46.52
2017-04-04T01:00:41.251Z,40.78
2017-04-04T01:01:40.357Z,48.12
2017-04-04T01:02:39.379Z,40.43
2017-04-04T01:03:38.736Z,46.95
2017-04-04T01:04:37.716Z,42.75
2017-04-04T01:05:36.711Z,44.18
2017-04-04T01:06:35.723Z,35.67
2017-04-04T01:07:35.119Z,46.33
2017-04-04T01:08:34.119Z,42.28
2017-04-04T01:09:33.107Z,43.80
2017-04-04T01:10:32.131Z,45.17
2017-04-04T01:11:31.155Z,53.28
2017-04-04T01:12:29.903Z,46.35
2017-04-04T01:13:28.916Z,55.03
2017-04-04T01:14:28.299Z,45.52
2017-04-04T01:15:27.311Z,38.38
2017-04-04T01:16:26.319Z,52.03
2017-04-04T01:17:25.398Z,51.40
2017-04-04T01:18:24.372Z,46.23
2017-04-04T01:19:22.988Z,48.58
2017-04-04T01:20:21.989Z,53.63
2017-04-04T01:21:20.533Z,46.35
2017-04-04T01:22:19.940Z,62.13
2017-04-04T01:23:18.971Z,52.10
2017-04-04T01:24:17.956Z,47.55
2017-04-04T01:25:16.987Z,47.30
2017-04-04T01:26:15.976Z,46.63
2017-04-04T01:27:14.942Z,49.63
2017-04-04T01:28:14.371Z,41.85
2017-04-04T01:29:12.967Z,52.12
2017-04-04T01:30:12.060Z,46.47
2017-04-04T01:31:11.100Z,45.27
2017-04-04T01:32:10.087Z,54.03
2017-04-04T01:33:09.068Z,55.43
2017-04-04T01:34:08.093Z,50.80
2017-04-04T01:35:06.719Z,47.85
2017-04-04T01:36:05.707Z,43.78
2017-04-04T01:37:04.876Z,48.87
2017-04-04T01:38:03.875Z,49.57
2017-04-04T01:39:02.869Z,54.92
2017-04-04T01:40:01.836Z,48.37
2017-04-04T01:41:00.847Z,58.12
2017-04-04T01:42:00.204Z,62.40
2017-04-04T01:42:58.794Z,53.88
2017-04-04T01:43:57.391Z,57.75
2017-04-04T01:44:56.738Z,54.78
2017-04-04T01:45:55.751Z,48.60
2017-04-04T01:46:54.325Z,53.58
2017-04-04T01:47:53.357Z,54.88
2017-04-04T01:48:52.367Z,68.53
2017-04-04T01:49:50.959Z,58.97
2017-04-04T01:50:49.944Z,54.60
2017-04-04T01:51:48.971Z,59.23
2017-04-04T01:52:47.971Z,57.05
2017-04-04T01:53:47.003Z,47.85
2017-04-04T01:54:46.004Z,49.75
2017-04-04T01:55:45.392Z,51.45
2017-04-04T01:56:44.419Z,54.70
2017-04-04T01:57:43.394Z,60.68
2017-04-04T01:58:42.431Z,63.60
2017-04-04T01:59:41.406Z,63.63
2017-04-04T02:00:40.440Z,51.35
2017-04-04T02:01:39.513Z,52.33
2017-04-04T02:02:38.506Z,50.73
2017-04-04T02:03:37.555Z,55.80
2017-04-04T02:04:36.627Z,64.03
2017-04-04T02:05:35.651Z,52.82
2017-04-04T02:06:34.629Z,66.73
2017-04-04T02:07:33.648Z,66.37
2017-04-04T02:08:32.610Z,66.65
2017-04-04T02:09:31.737Z,78.88
2017-04-04T02:10:30.720Z,61.07
2017-04-04T02:11:29.808Z,58.63
2017-04-04T02:12:28.747Z,64.33
2017-04-04T02:13:27.944Z,56.62
2017-04-04T02:14:26.619Z,73.48
2017-04-04T02:15:25.311Z,64.50
2017-04-04T02:16:24.392Z,72.48
2017-04-04T02:17:23.447Z,69.92
2017-04-04T02:18:22.459Z,62.15
2017-04-04T02:19:21.508Z,62.08
2017-04-04T02:20:20.939Z,63.45
2017-04-04T02:21:19.687Z,62.72
2017-04-04T02:22:19.064Z,72.07
2017-04-04T02:23:18.058Z,82.70
2017-04-04T02:24:17.437Z,68.18
2017-04-04T02:25:16.463Z,62.23
2017-04-04T02:26:15.470Z,72.85
2017-04-04T02:27:14.491Z,68.47
2017-04-04T02:28:13.075Z,74.97
2017-04-04T02:29:12.423Z,60.02
2017-04-04T02:30:11.440Z,73.68
2017-04-04T02:31:10.437Z,77.75
2017-04-04T02:32:09.427Z,66.70
2017-04-04T02:33:08.148Z,71.07
2017-04-04T02:34:07.186Z,69.93
2017-04-04T02:35:06.522Z,63.32
2017-04-04T02:36:05.523Z,67.15
2017-04-04T02:37:04.967Z,70.93
2017-04-04T02:38:03.959Z,79.25
2017-04-04T02:39:03.063Z,78.67
2017-04-04T02:40:02.068Z,71.95
2017-04-04T02:41:01.059Z,81.68
2017-04-04T02:42:00.055Z,72.67
2017-04-04T02:42:59.047Z,74.67
2017-04-04T02:43:58.464Z,73.02
2017-04-04T02:44:57.495Z,72.55
2017-04-04T02:45:56.500Z,85.67
2017-04-04T02:46:55.527Z,76.15
2017-04-04T02:47:54.539Z,83.60
2017-04-04T02:48:53.516Z,79.55
2017-04-04T02:49:52.559Z,77.47
2017-04-04T02:50:51.563Z,77.60
2017-04-04T02:51:50.632Z,79.15
2017-04-04T02:52:49.991Z,80.53
2017-04-04T02:53:48.996Z,85.47
2017-04-04T02:54:47.612Z,80.53
2017-04-04T02:55:46.182Z,73.57
2017-04-04T02:56:45.223Z,83.17
2017-04-04T02:57:44.225Z,78.87
2017-04-04T02:58:43.656Z,75.72
2017-04-04T02:59:42.687Z,71.17
2017-04-04T03:00:41.735Z,86.53
2017-04-04T03:01:40.658Z,84.53
2017-04-04T03:02:39.319Z,89.57
2017-04-04T03:03:38.351Z,71.42
2017-04-04T03:04:37.407Z,79.17
2017-04-04T03:05:36.755Z,78.72
2017-04-04T03:06:35.751Z,76.95
2017-04-04T03:07:34.751Z,78.58
2017-04-04T03:08:33.796Z,91.05
2017-04-04T03:09:32.775Z,86.30
2017-04-04T03:10:31.775Z,84.47
2017-04-04T03:11:30.727Z,87.07
2017-04-04T03:12:29.779Z,79.22
2017-04-04T03:13:28.772Z,76.05
2017-04-04T03:14:28.519Z,84.13
2017-04-04T03:15:28.227Z,83.58
2017-04-04T03:16:27.262Z,76.42
2017-04-04T03:17:26.736Z,82.83
2017-04-04T03:18:25.724Z,83.75
2017-04-04T03:19:24.342Z,79.37
2017-04-04T03:20:23.020Z,85.70
2017-04-04T03:21:21.644Z,81.92
2017-04-04T03:22:20.627Z,84.52
2017-04-04T03:23:19.680Z,75.03
2017-04-04T03:24:18.671Z,74.75
2017-04-04T03:25:17.679Z,82.27
2017-04-04T03:26:16.326Z,85.30
2017-04-04T03:27:15.350Z,91.35
2017-04-04T03:28:14.332Z,98.43
2017-04-04T03:29:13.386Z,96.23
2017-04-04T03:30:12.384Z,100.80
2017-04-04T03:31:11.406Z,87.87
2017-04-04T03:32:09.971Z,87.82
2017-04-04T03:33:08.971Z,98.13
2017-04-04T03:34:07.963Z,83.57
2017-04-04T03:35:06.927Z,83.00
2017-04-04T03:36:05.955Z,100.28
2017-04-04T03:37:04.600Z,99.87
2017-04-04T03:38:03.599Z,87.43
2017-04-04T03:39:02.160Z,91.37
2017-04-04T03:40:00.783Z,75.83
2017-04-04T03:40:59.836Z,109.03
2017-04-04T03:41:58.832Z,88.53
2017-04-04T03:42:57.447Z,89.75
2017-04-04T03:43:56.435Z,94.65
2017-04-04T03:44:55.800Z,99.55
2017-04-04T03:45:54.825Z,87.72
2017-04-04T03:46:53.831Z,114.90
2017-04-04T03:47:52.866Z,89.22
2017-04-04T03:48:51.889Z,104.30
2017-04-04T03:49:51.103Z,87.07
2017-04-04T03:50:49.682Z,85.80
2017-04-04T03:51:49.103Z,95.68
2017-04-04T03:52:48.095Z,106.32
2017-04-04T03:53:47.169Z,108.43
2017-04-04T03:54:46.203Z,95.63
2017-04-04T03:55:45.223Z,107.28
2017-04-04T03:56:44.216Z,95.85
2017-04-04T03:57:42.866Z,104.28
2017-04-04T03:58:41.883Z,110.53
2017-04-04T03:59:40.834Z,94.97
2017-04-04T04:00:39.819Z,96.07
2017-04-04T04:01:39.010Z,97.62
2017-04-04T04:02:38.031Z,94.55
2017-04-04T04:03:37.228Z,113.80
2017-04-04T04:04:36.571Z,85.77
2017-04-04T04:05:35.543Z,83.40
2017-04-04T04:06:34.500Z,94.95
2017-04-04T04:07:33.509Z,97.53
2017-04-04T04:08:32.483Z,84.12
2017-04-04T04:09:31.528Z,97.97
2017-04-04T04:10:30.520Z,105.00
2017-04-04T04:11:29.471Z,89.93
2017-04-04T04:12:28.895Z,83.07
2017-04-04T04:13:27.864Z,106.70
2017-04-04T04:14:26.450Z,99.68
2017-04-04T04:15:25.472Z,113.72
2017-04-04T04:16:24.418Z,93.68
2017-04-04T04:17:23.284Z,111.08
2017-04-04T04:18:22.318Z,99.97
2017-04-04T04:19:21.326Z,95.78
2017-04-04T04:20:20.311Z,104.03
2017-04-04T04:21:19.332Z,84.23
2017-04-04T04:22:18.313Z,86.25
2017-04-04T04:23:17.743Z,93.27
2017-04-04T04:24:16.775Z,99.27
2017-04-04T04:25:15.793Z,107.92
2017-04-04T04:26:15.065Z,114.98
2017-04-04T04:27:13.684Z,92.60
2017-04-04T04:28:13.396Z,105.10
2017-04-04T04:29:12.426Z,99.70
2017-04-04T04:30:11.447Z,116.12
2017-04-04T04:31:10.437Z,124.42
2017-04-04T04:32:09.455Z,100.80
2017-04-04T04:33:08.497Z,101.13
2017-04-04T04:34:07.803Z,105.37
2017-04-04T04:35:06.839Z,114.35
2017-04-04T04:36:05.839Z,106.65
2017-04-04T04:37:05.231Z,109.28
2017-04-04T04:38:03.855Z,110.40
2017-04-04T04:39:02.902Z,111.70
2017-04-04T04:40:01.505Z,124.63
2017-04-04T04:41:00.498Z,106.37
2017-04-04T04:41:59.046Z,108.73
2017-04-04T04:42:58.079Z,106.48
2017-04-04T04:43:57.088Z,111.23
2017-04-04T04:44:55.667Z,120.02
2017-04-04T04:45:54.651Z,138.53
2017-04-04T04:46:53.627Z,119.05
2017-04-04T04:47:52.603Z,117.13
2017-04-04T04:48:51.918Z,106.08
2017-04-04T04:49:50.916Z,111.03
2017-04-04T04:50:49.909Z,113.58
2017-04-04T04:51:48.516Z,121.30
2017-04-04T04:52:47.471Z,122.58
2017-04-04T04:53:46.479Z,115.95
2017-04-04T04:54:45.479Z,134.10
2017-04-04T04:55:44.455Z,118.75
2017-04-04T04:56:43.455Z,117.72
2017-04-04T04:57:42.816Z,138.70
2017-04-04T04:58:41.836Z,109.57
2017-04-04T04:59:40.415Z,111.90
2017-04-04T05:00:39.482Z,136.37
2017-04-04T05:01:38.058Z,127.75
2017-04-04T05:02:37.421Z,116.55
2017-04-04T05:03:36.456Z,113.30
2017-04-04T05:04:35.468Z,121.00
2017-04-04T05:05:34.459Z,129.55
2017-04-04T05:06:33.087Z,129.43
2017-04-04T05:07:32.441Z,122.17
2017-04-04T05:08:31.476Z,125.30
2017-04-04T05:09:30.032Z,116.25
2017-04-04T05:10:29.052Z,125.80
2017-04-04T05:11:27.627Z,124.63
2017-04-04T05:12:26.739Z,135.25
2017-04-04T05:13:25.724Z,114.02
2017-04-04T05:14:24.779Z,122.87
2017-04-04T05:15:23.745Z,117.50
2017-04-04T05:16:22.747Z,128.72
2017-04-04T05:17:22.515Z,124.50
2017-04-04T05:18:21.891Z,131.10
2017-04-04T05:19:20.880Z,114.20
2017-04-04T05:20:19.875Z,115.00
2017-04-04T05:21:19.242Z,127.62
2017-04-04T05:22:18.296Z,133.20
2017-04-04T05:23:17.332Z,126.52
2017-04-04T05:24:16.322Z,109.88
2017-04-04T05:25:15.371Z,127.08
2017-04-04T05:26:14.724Z,126.10
2017-04-04T05:27:13.751Z,144.92
2017-04-04T05:28:12.755Z,123.52
2017-04-04T05:29:11.756Z,120.38
2017-04-04T05:30:11.135Z,116.82
2017-04-04T05:31:09.892Z,121.12
2017-04-04T05:32:08.957Z,127.53
2017-04-04T05:33:08.040Z,119.92
2017-04-04T05:34:06.621Z,120.63
2017-04-04T05:35:05.773Z,126.02
2017-04-04T05:36:05.190Z,120.23
2017-04-04T05:37:04.188Z,117.03
2017-04-04T05:38:03.181Z,125.32
2017-04-04T05:39:02.156Z,132.22
2017-04-04T05:40:01.164Z,123.70
2017-04-04T05:41:00.164Z,121.77
2017-04-04T05:41:59.563Z,122.15
2017-04-04T05:42:59.003Z,119.18
2017-04-04T05:43:57.955Z,122.97
2017-04-04T05:44:56.966Z,117.75
2017-04-04T05:45:55.919Z,120.12
2017-04-04T05:46:54.898Z,118.20
2017-04-04T05:47:53.535Z,106.90
2017-04-04T05:48:52.507Z,113.62
2017-04-04T05:49:51.458Z,111.77
2017-04-04T05:50:50.028Z,121.38
2017-04-04T05:51:49.155Z,112.23
2017-04-04T05:52:48.130Z,127.87
2017-04-04T05:53:47.075Z,125.07
2017-04-04T05:54:46.135Z,130.47
2017-04-04T05:55:45.097Z,107.42
2017-04-04T05:56:44.139Z,119.40
2017-04-04T05:57:43.168Z,112.53
2017-04-04T05:58:42.183Z,110.77
2017-04-04T05:59:41.337Z,116.27
2017-04-04T06:00:40.320Z,128.63
2017-04-04T06:01:39.269Z,132.00
2017-04-04T06:02:38.070Z,131.87
2017-04-04T06:03:37.039Z,124.45
2017-04-04T06:04:36.417Z,130.17
2017-04-04T06:05:35.631Z,136.02
2017-04-04T06:06:34.635Z,121.68
2017-04-04T06:07:33.594Z,126.37
2017-04-04T06:08:32.602Z,118.03
2017-04-04T06:09:31.631Z,124.65
2017-04-04T06:10:30.260Z,126.80
2017-04-04T06:11:29.315Z,144.28
2017-04-04T06:12:29.093Z,122.58
2017-04-04T06:13:28.046Z,131.07
2017-04-04T06:14:27.098Z,130.80
2017-04-04T06:15:26.216Z,124.52
2017-04-04T06:16:25.207Z,123.82
2017-04-04T06:17:24.548Z,124.73
2017-04-04T06:18:23.170Z,118.22
2017-04-04T06:19:22.550Z,133.55
2017-04-04T06:20:21.147Z,117.57
2017-04-04T06:21:20.527Z,116.80
2017-04-04T06:22:19.560Z,113.53
2017-04-04T06:23:18.574Z,127.32
2017-04-04T06:24:17.518Z,123.88
2017-04-04T06:25:16.568Z,114.72
2017-04-04T06:26:15.552Z,110.45
2017-04-04T06:27:14.579Z,120.23
2017-04-04T06:28:14.299Z,121.23
2017-04-04T06:29:13.726Z,122.02
2017-04-04T06:30:13.107Z,120.25
2017-04-04T06:31:11.723Z,125.55
2017-04-04T06:32:10.704Z,124.13
2017-04-04T06:33:09.668Z,110.55
2017-04-04T06:34:08.296Z,122.70
2017-04-04T06:35:07.344Z,122.97
2017-04-04T06:36:06.332Z,134.17
2017-04-04T06:37:05.312Z,117.58
2017-04-04T06:38:04.314Z,126.60
2017-04-04T06:39:04.446Z,122.20
2017-04-04T06:40:03.498Z,114.30
2017-04-04T06:41:02.470Z,143.05
2017-04-04T06:42:01.456Z,129.65
2017-04-04T06:43:00.411Z,126.35
2017-04-04T06:43:59.333Z,119.73
2017-04-04T06:44:58.337Z,117.77
2017-04-04T06:45:57.288Z,148.67
2017-04-04T06:46:56.238Z,131.63
2017-04-04T06:47:55.222Z,122.58
2017-04-04T06:48:54.250Z,132.32
2017-04-04T06:49:53.215Z,129.72
2017-04-04T06:50:52.167Z,127.65
2017-04-04T06:51:51.135Z,125.52
2017-04-04T06:52:50.176Z,121.43
2017-04-04T06:53:49.228Z,113.42
2017-04-04T06:54:48.182Z,129.33
2017-04-04T06:55:47.151Z,113.98
2017-04-04T06:56:45.749Z,115.33
2017-04-04T06:57:44.764Z,123.17
2017-04-04T06:58:44.145Z,123.42
2017-04-04T06:59:43.180Z,111.67
2017-04-04T07:00:42.211Z,118.40
2017-04-04T07:01:41.235Z,116.53
2017-04-04T07:02:45.760Z,113.82
2017-04-04T07:03:44.482Z,135.13
2017-04-04T07:04:43.079Z,146.27
2017-04-04T07:05:42.471Z,149.78
2017-04-04T07:06:42.115Z,139.70
2017-04-04T07:07:42.124Z,138.97
2017-04-04T07:08:41.079Z,128.92
2017-04-04T07:09:40.071Z,121.52
2017-04-04T07:10:39.246Z,122.85
2017-04-04T07:11:38.330Z,144.25
2017-04-04T07:12:37.375Z,145.22
2017-04-04T07:13:35.913Z,156.20
2017-04-04T07:14:34.944Z,123.02
2017-04-04T07:15:33.961Z,137.70
2017-04-04T07:16:33.183Z,138.28
2017-04-04T07:17:32.408Z,139.03
2017-04-04T07:18:31.424Z,140.37
2017-04-04T07:19:30.745Z,131.88
2017-04-04T07:20:29.747Z,131.33
2017-04-04T07:21:28.791Z,130.12
2017-04-04T07:22:27.811Z,126.20
2017-04-04T07:23:26.932Z,141.43
2017-04-04T07:24:25.939Z,131.37
2017-04-04T07:25:24.480Z,139.12
2017-04-04T07:26:23.551Z,142.73
2017-04-04T07:27:22.548Z,127.62
2017-04-04T07:28:21.579Z,151.48
2017-04-04T07:29:20.956Z,142.15
2017-04-04T07:30:19.931Z,141.98
2017-04-04T07:31:18.907Z,137.73
2017-04-04T07:32:18.279Z,156.23
2017-04-04T07:33:17.235Z,130.97
2017-04-04T07:34:16.251Z,135.18
2017-04-04T07:35:14.928Z,140.57
2017-04-04T07:36:13.912Z,127.80
2017-04-04T07:37:12.979Z,142.38
2017-04-04T07:38:11.933Z,139.27
2017-04-04T07:39:10.951Z,159.70
2017-04-04T07:40:09.931Z,126.42
2017-04-04T07:41:08.970Z,142.80
2017-04-04T07:42:07.981Z,132.75
2017-04-04T07:43:07.016Z,135.10
2017-04-04T07:44:06.107Z,147.17
2017-04-04T07:45:05.101Z,139.47
2017-04-04T07:46:04.182Z,143.65
2017-04-04T07:47:03.236Z,146.75
2017-04-04T07:48:01.782Z,130.72
2017-04-04T07:49:01.172Z,132.65
2017-04-04T07:50:00.322Z,150.65
2017-04-04T07:50:59.375Z,132.90
2017-04-04T07:51:58.023Z,129.40
2017-04-04T07:52:56.604Z,127.68
2017-04-04T07:53:55.957Z,141.47
2017-04-04T07:54:55.010Z,149.30
2017-04-04T07:55:54.020Z,151.62
2017-04-04T07:56:52.656Z,136.27
2017-04-04T07:57:51.664Z,135.00
2017-04-04T07:58:50.648Z,132.57
2017-04-04T07:59:50.027Z,128.45
2017-04-04T08:00:49.050Z,138.63
2017-04-04T08:01:48.032Z,123.58
2017-04-04T08:02:46.603Z,137.23
2017-04-04T08:03:45.599Z,137.97
2017-04-04T08:04:44.624Z,118.92
2017-04-04T08:05:43.744Z,121.17
2017-04-04T08:06:42.770Z,124.07
2017-04-04T08:07:41.839Z,132.00
2017-04-04T08:08:40.798Z,134.85
2017-04-04T08:09:39.809Z,137.68
2017-04-04T08:10:38.875Z,122.07
2017-04-04T08:11:37.496Z,112.28
2017-04-04T08:12:36.475Z,123.77
2017-04-04T08:13:35.499Z,138.38
2017-04-04T08:14:34.523Z,131.65
2017-04-04T08:15:33.525Z,128.98
2017-04-04T08:16:32.560Z,133.52
2017-04-04T08:17:31.528Z,135.00
2017-04-04T08:18:30.532Z,121.62
2017-04-04T08:19:29.504Z,140.03
2017-04-04T08:20:28.539Z,135.43
2017-04-04T08:21:27.523Z,134.37
2017-04-04T08:22:26.536Z,131.02
2017-04-04T08:23:25.516Z,138.33
2017-04-04T08:24:24.600Z,138.85
2017-04-04T08:25:23.595Z,125.70
2017-04-04T08:26:22.224Z,121.28
2017-04-04T08:27:21.339Z,127.58
2017-04-04T08:28:20.343Z,111.27
2017-04-04T08:29:19.383Z,126.23
2017-04-04T08:30:18.531Z,130.82
2017-04-04T08:31:17.507Z,117.62
2017-04-04T08:32:16.540Z,115.83
2017-04-04T08:33:15.518Z,114.25
2017-04-04T08:34:14.445Z,123.77
2017-04-04T08:35:13.541Z,103.93
2017-04-04T08:36:12.551Z,117.48
2017-04-04T08:37:11.566Z,129.53
2017-04-04T08:38:10.631Z,108.30
2017-04-04T08:39:09.594Z,117.45
2017-04-04T08:40:08.652Z,119.58
2017-04-04T08:41:07.565Z,109.75
2017-04-04T08:42:06.587Z,131.25
2017-04-04T08:43:05.595Z,116.35
2017-04-04T08:44:04.231Z,123.32
2017-04-04T08:45:02.837Z,127.00
2017-04-04T08:46:01.821Z,123.17
2017-04-04T08:47:00.752Z,124.72
2017-04-04T08:47:59.763Z,119.08
2017-04-04T08:48:58.742Z,124.78
2017-04-04T08:49:57.760Z,123.82
2017-04-04T08:50:56.684Z,119.43
2017-04-04T08:51:55.684Z,122.90
2017-04-04T08:52:54.283Z,108.82
2017-04-04T08:53:53.283Z,125.05
2017-04-04T08:54:52.270Z,115.82
2017-04-04T08:55:51.260Z,109.52
2017-04-04T08:56:49.854Z,130.10
2017-04-04T08:57:48.821Z,106.98
2017-04-04T08:58:48.163Z,111.23
2017-04-04T08:59:47.191Z,109.20
2017-04-04T09:00:46.163Z,120.77
2017-04-04T09:01:45.229Z,115.50
2017-04-04T09:02:44.201Z,110.45
2017-04-04T09:03:42.786Z,118.88
2017-04-04T09:04:41.766Z,109.47
2017-04-04T09:05:40.747Z,125.97
2017-04-04T09:06:39.715Z,135.35
2017-04-04T09:07:38.687Z,116.30
2017-04-04T09:08:37.819Z,127.30
2017-04-04T09:09:36.382Z,120.43
2017-04-04T09:10:35.351Z,125.72
2017-04-04T09:11:34.410Z,117.63
2017-04-04T09:12:33.415Z,117.78
2017-04-04T09:13:32.399Z,122.43
2017-04-04T09:14:31.399Z,132.77
2017-04-04T09:15:30.387Z,124.38
2017-04-04T09:16:29.359Z,119.30
2017-04-04T09:17:28.282Z,120.45
2017-04-04T09:18:27.312Z,115.30
2017-04-04T09:19:26.298Z,117.67
2017-04-04T09:20:25.331Z,130.85
2017-04-04T09:21:23.982Z,124.12
2017-04-04T09:22:23.017Z,122.03
2017-04-04T09:23:21.979Z,124.65
2017-04-04T09:24:20.976Z,121.32
2017-04-04T09:25:19.541Z,119.63
2017-04-04T09:26:18.555Z,103.72
2017-04-04T09:27:17.551Z,106.00
2017-04-04T09:28:16.492Z,105.43
2017-04-04T09:29:15.536Z,106.37
2017-04-04T09:30:14.501Z,127.37
2017-04-04T09:31:13.555Z,105.42
2017-04-04T09:32:12.127Z,125.63
2017-04-04T09:33:11.196Z,107.82
2017-04-04T09:34:10.151Z,115.30
2017-04-04T09:35:09.189Z,135.60
2017-04-04T09:36:07.744Z,113.32
2017-04-04T09:37:06.845Z,113.93
2017-04-04T09:38:05.874Z,133.27
2017-04-04T09:39:05.643Z,125.73
2017-04-04T09:40:04.680Z,100.72
2017-04-04T09:41:03.655Z,121.47
2017-04-04T09:42:02.615Z,106.97
2017-04-04T09:43:01.624Z,111.92
2017-04-04T09:44:01.344Z,118.82
2017-04-04T09:44:59.907Z,104.98
2017-04-04T09:45:58.929Z,100.25
2017-04-04T09:46:57.921Z,109.02
2017-04-04T09:47:56.943Z,111.37
2017-04-04T09:48:56.035Z,114.90
2017-04-04T09:49:55.027Z,120.78
2017-04-04T09:50:54.966Z,109.97
2017-04-04T09:51:54.310Z,104.45
2017-04-04T09:52:53.287Z,116.17
2017-04-04T09:53:52.246Z,112.15
2017-04-04T09:54:51.760Z,111.47
2017-04-04T09:55:50.703Z,105.23
2017-04-04T09:56:49.655Z,112.63
2017-04-04T09:57:48.644Z,107.30
2017-04-04T09:58:47.224Z,129.60
2017-04-04T09:59:46.220Z,108.13
2017-04-04T10:00:45.206Z,96.25
2017-04-04T10:01:44.226Z,133.58
2017-04-04T10:02:43.232Z,110.05
2017-04-04T10:03:42.212Z,99.90
2017-04-04T10:04:41.182Z,111.98
2017-04-04T10:05:40.174Z,99.03
2017-04-04T10:06:39.172Z,91.77
2017-04-04T10:07:38.201Z,95.58
2017-04-04T10:08:37.247Z,101.18
2017-04-04T10:09:36.228Z,100.80
2017-04-04T10:10:35.312Z,107.08
2017-04-04T10:11:34.324Z,85.02
2017-04-04T10:12:33.339Z,93.88
2017-04-04T10:13:32.325Z,101.83
2017-04-04T10:14:31.363Z,102.47
2017-04-04T10:15:30.382Z,96.13
2017-04-04T10:16:29.742Z,92.08
2017-04-04T10:17:28.373Z,96.82
2017-04-04T10:18:27.500Z,78.27
2017-04-04T10:19:26.402Z,90.88
2017-04-04T10:20:25.422Z,90.15
2017-04-04T10:21:24.427Z,70.90
2017-04-04T10:22:23.425Z,93.87
2017-04-04T10:23:22.383Z,110.17
2017-04-04T10:24:21.901Z,98.45
2017-04-04T10:25:20.903Z,84.32
2017-04-04T10:26:20.228Z,100.18
2017-04-04T10:27:19.237Z,94.68
2017-04-04T10:28:18.374Z,88.08
2017-04-04T10:29:17.017Z,80.72
2017-04-04T10:30:16.276Z,84.72
2017-04-04T10:31:15.250Z,87.55
2017-04-04T10:32:13.835Z,81.65
2017-04-04T10:33:12.795Z,89.02
2017-04-04T10:34:11.851Z,88.25
2017-04-04T10:35:10.944Z,82.98
2017-04-04T10:36:09.934Z,74.10
2017-04-04T10:37:08.944Z,100.23
2017-04-04T10:38:07.940Z,86.57
2017-04-04T10:39:07.263Z,94.97
2017-04-04T10:40:06.231Z,112.38
2017-04-04T10:41:05.655Z,84.63
2017-04-04T10:42:04.647Z,90.88
2017-04-04T10:43:03.998Z,93.75
2017-04-04T10:44:03.341Z,86.93
2017-04-04T10:45:02.388Z,78.52
2017-04-04T10:46:01.391Z,92.83
2017-04-04T10:47:00.780Z,98.67
2017-04-04T10:47:59.816Z,82.23
2017-04-04T10:48:58.491Z,97.23
2017-04-04T10:49:57.451Z,84.08
2017-04-04T10:50:56.443Z,75.38
2017-04-04T10:51:55.447Z,80.20
2017-04-04T10:52:54.433Z,69.65
2017-04-04T10:53:53.458Z,72.67
2017-04-04T10:54:52.456Z,77.30
2017-04-04T10:55:51.839Z,83.53
2017-04-04T10:56:51.193Z,68.27
2017-04-04T10:57:49.814Z,79.95
2017-04-04T10:58:49.162Z,80.77
2017-04-04T10:59:48.151Z,85.63
2017-04-04T11:00:46.715Z,78.72
2017-04-04T11:01:45.735Z,67.12
2017-04-04T11:02:44.750Z,70.65
2017-04-04T11:03:43.728Z,67.10
2017-04-04T11:04:42.703Z,69.68
2017-04-04T11:05:41.250Z,79.53
2017-04-04T11:06:40.343Z,83.77
2017-04-04T11:07:39.286Z,72.33
2017-04-04T11:08:38.224Z,85.98
2017-04-04T11:09:37.258Z,83.52
2017-04-04T11:10:36.254Z,68.57
2017-04-04T11:11:35.178Z,83.93
2017-04-04T11:12:33.793Z,84.72
2017-04-04T11:13:32.790Z,80.93
2017-04-04T11:14:31.773Z,84.45
2017-04-04T11:15:30.763Z,82.42
2017-04-04T11:16:29.803Z,74.20
2017-04-04T11:17:28.812Z,89.37
2017-04-04T11:18:27.899Z,72.85
2017-04-04T11:19:26.922Z,73.62
2017-04-04T11:20:25.914Z,65.80
2017-04-04T11:21:25.289Z,70.20
2017-04-04T11:22:24.296Z,79.23
2017-04-04T11:23:24.031Z,75.60
2017-04-04T11:24:23.049Z,78.27
2017-04-04T11:25:21.998Z,74.60
2017-04-04T11:26:20.942Z,82.58
2017-04-04T11:27:19.954Z,67.38
2017-04-04T11:28:18.964Z,65.83
2017-04-04T11:29:17.932Z,75.15
2017-04-04T11:30:16.923Z,71.85
2017-04-04T11:31:15.490Z,72.78
2017-04-04T11:32:14.507Z,62.63
2017-04-04T11:33:13.495Z,64.72
2017-04-04T11:34:12.619Z,58.17
2017-04-04T11:35:11.643Z,57.13
2017-04-04T11:36:10.271Z,60.73
2017-04-04T11:37:08.883Z,65.75
2017-04-04T11:38:07.519Z,62.58
2017-04-04T11:39:06.545Z,64.58
2017-04-04T11:40:05.224Z,68.83
2017-04-04T11:41:04.216Z,75.93
2017-04-04T11:42:03.245Z,67.32
2017-04-04T11:43:02.622Z,67.80
2017-04-04T11:44:01.599Z,67.03
2017-04-04T11:45:00.551Z,64.30
2017-04-04T11:45:59.534Z,68.38
2017-04-04T11:46:58.510Z,66.63
2017-04-04T11:47:57.071Z,66.73
2017-04-04T11:48:56.056Z,71.55
2017-04-04T11:49:55.083Z,78.53
2017-04-04T11:50:54.074Z,80.55
2017-04-04T11:51:53.187Z,80.42
2017-04-04T11:52:52.296Z,75.20
2017-04-04T11:53:50.949Z,84.07
2017-04-04T11:54:49.542Z,77.57
2017-04-04T11:55:48.544Z,71.95
2017-04-04T11:56:47.490Z,73.32
2017-04-04T11:57:46.591Z,74.55
2017-04-04T11:58:45.495Z,81.95
2017-04-04T11:59:44.135Z,82.82
2017-04-04T12:00:43.130Z,70.05
2017-04-04T12:01:41.687Z,84.70
2017-04-04T12:02:41.128Z,80.35
2017-04-04T12:03:40.119Z,84.50
2017-04-04T12:04:39.124Z,73.40
2017-04-04T12:05:38.087Z,80.62
2017-04-04T12:06:37.196Z,70.45
2017-04-04T12:07:35.888Z,68.45
2017-04-04T12:08:35.186Z,78.17
2017-04-04T12:09:34.187Z,63.72
2017-04-04T12:10:32.717Z,66.00
2017-04-04T12:11:31.307Z,77.17
2017-04-04T12:12:30.649Z,68.43
2017-04-04T12:13:29.223Z,70.85
2017-04-04T12:14:28.203Z,63.98
2017-04-04T12:15:27.203Z,75.75
2017-04-04T12:16:26.308Z,57.25
2017-04-04T12:17:25.331Z,59.05
2017-04-04T12:18:24.490Z,60.13
2017-04-04T12:19:23.500Z,64.98
2017-04-04T12:20:22.543Z,63.47
2017-04-04T12:21:21.655Z,58.03
2017-04-04T12:22:20.956Z,66.90
2017-04-04T12:23:19.983Z,61.08
2017-04-04T12:24:18.984Z,65.00
2017-04-04T12:25:18.010Z,68.62
2017-04-04T12:26:17.020Z,65.27
2017-04-04T12:27:16.047Z,63.08
2017-04-04T12:28:15.056Z,61.37